sensor_id;sensor_type;location;lat;lon;timestamp;P1;durP1;ratioP1;P2;durP2;ratioP2
43990;SDS011;29654;50.784;20.604;2023-12-14T00:03:41;35.05;;;22.58;;
43990;SDS011;29654;50.784;20.604;2023-12-14T00:08:44;34.22;;;22.85;;
43990;SDS011;29654;50.784;20.604;2023-12-14T00:13:48;35.22;;;22.83;;
43990;SDS011;29654;50.784;20.604;2023-12-14T00:18:51;29.45;;;20.75;;
43990;SDS011;29654;50.784;20.604;2023-12-14T00:23:53;29.33;;;19.70;;
43990;SDS011;29654;50.784;20.604;2023-12-14T00:28:57;30.27;;;19.80;;
43990;SDS011;29654;50.784;20.604;2023-12-14T00:34:00;33.53;;;20.92;;
43990;SDS011;29654;50.784;20.604;2023-12-14T00:39:03;32.10;;;19.83;;
43990;SDS011;29654;50.784;20.604;2023-12-14T00:44:07;34.55;;;20.23;;
43990;SDS011;29654;50.784;20.604;2023-12-14T00:49:10;33.50;;;21.20;;
43990;SDS011;29654;50.784;20.604;2023-12-14T00:54:12;31.38;;;20.52;;
43990;SDS011;29654;50.784;20.604;2023-12-14T00:59:16;32.50;;;20.83;;
43990;SDS011;29654;50.784;20.604;2023-12-14T01:04:19;34.92;;;22.63;;
43990;SDS011;29654;50.784;20.604;2023-12-14T01:09:22;34.92;;;20.52;;
43990;SDS011;29654;50.784;20.604;2023-12-14T01:14:30;34.03;;;20.42;;
43990;SDS011;29654;50.784;20.604;2023-12-14T01:19:39;28.08;;;18.77;;
43990;SDS011;29654;50.784;20.604;2023-12-14T01:24:45;32.05;;;19.58;;
43990;SDS011;29654;50.784;20.604;2023-12-14T01:29:54;31.60;;;18.33;;
43990;SDS011;29654;50.784;20.604;2023-12-14T01:35:00;29.20;;;19.40;;
43990;SDS011;29654;50.784;20.604;2023-12-14T01:40:09;33.38;;;21.15;;
43990;SDS011;29654;50.784;20.604;2023-12-14T01:45:18;32.92;;;21.45;;
43990;SDS011;29654;50.784;20.604;2023-12-14T01:50:24;34.05;;;19.85;;
43990;SDS011;29654;50.784;20.604;2023-12-14T01:55:30;34.13;;;20.15;;
43990;SDS011;29654;50.784;20.604;2023-12-14T02:00:38;28.90;;;18.77;;
43990;SDS011;29654;50.784;20.604;2023-12-14T02:05:47;27.88;;;18.17;;
43990;SDS011;29654;50.784;20.604;2023-12-14T02:10:49;29.90;;;19.63;;
43990;SDS011;29654;50.784;20.604;2023-12-14T02:15:53;27.27;;;18.38;;
43990;SDS011;29654;50.784;20.604;2023-12-14T02:20:56;27.40;;;19.40;;
43990;SDS011;29654;50.784;20.604;2023-12-14T02:26:00;31.05;;;20.20;;
43990;SDS011;29654;50.784;20.604;2023-12-14T02:31:04;26.98;;;19.23;;
43990;SDS011;29654;50.784;20.604;2023-12-14T02:36:07;28.08;;;18.48;;
43990;SDS011;29654;50.784;20.604;2023-12-14T02:41:11;24.90;;;19.42;;
43990;SDS011;29654;50.784;20.604;2023-12-14T02:46:14;28.38;;;20.10;;
43990;SDS011;29654;50.784;20.604;2023-12-14T02:51:18;28.10;;;19.58;;
43990;SDS011;29654;50.784;20.604;2023-12-14T02:56:22;32.08;;;20.23;;
43990;SDS011;29654;50.784;20.604;2023-12-14T03:01:25;29.27;;;20.67;;
43990;SDS011;29654;50.784;20.604;2023-12-14T03:06:28;30.15;;;21.02;;
43990;SDS011;29654;50.784;20.604;2023-12-14T03:11:32;30.58;;;20.95;;
43990;SDS011;29654;50.784;20.604;2023-12-14T03:16:34;34.28;;;22.38;;
43990;SDS011;29654;50.784;20.604;2023-12-14T03:21:37;29.98;;;21.92;;
43990;SDS011;29654;50.784;20.604;2023-12-14T03:26:41;35.08;;;24.35;;
43990;SDS011;29654;50.784;20.604;2023-12-14T03:31:44;35.22;;;22.95;;
43990;SDS011;29654;50.784;20.604;2023-12-14T03:36:46;31.23;;;20.63;;
43990;SDS011;29654;50.784;20.604;2023-12-14T03:41:50;33.97;;;23.10;;
43990;SDS011;29654;50.784;20.604;2023-12-14T03:46:53;28.50;;;21.55;;
43990;SDS011;29654;50.784;20.604;2023-12-14T03:51:58;30.33;;;21.63;;
43990;SDS011;29654;50.784;20.604;2023-12-14T03:57:02;27.85;;;19.55;;
43990;SDS011;29654;50.784;20.604;2023-12-14T04:02:05;29.85;;;21.15;;
43990;SDS011;29654;50.784;20.604;2023-12-14T04:07:07;27.88;;;20.55;;
43990;SDS011;29654;50.784;20.604;2023-12-14T04:12:11;31.50;;;22.38;;
43990;SDS011;29654;50.784;20.604;2023-12-14T04:17:14;29.55;;;22.05;;
43990;SDS011;29654;50.784;20.604;2023-12-14T04:22:16;31.00;;;20.98;;
43990;SDS011;29654;50.784;20.604;2023-12-14T04:27:22;30.70;;;20.35;;
43990;SDS011;29654;50.784;20.604;2023-12-14T04:32:28;25.80;;;18.60;;
43990;SDS011;29654;50.784;20.604;2023-12-14T04:37:31;26.30;;;19.67;;
43990;SDS011;29654;50.784;20.604;2023-12-14T04:42:35;26.63;;;18.77;;
43990;SDS011;29654;50.784;20.604;2023-12-14T04:47:38;29.45;;;19.50;;
43990;SDS011;29654;50.784;20.604;2023-12-14T04:52:41;27.23;;;19.10;;
43990;SDS011;29654;50.784;20.604;2023-12-14T04:57:45;32.05;;;21.88;;
43990;SDS011;29654;50.784;20.604;2023-12-14T05:02:49;29.25;;;21.63;;
43990;SDS011;29654;50.784;20.604;2023-12-14T05:07:53;29.80;;;20.80;;
43990;SDS011;29654;50.784;20.604;2023-12-14T05:12:57;32.63;;;21.58;;
43990;SDS011;29654;50.784;20.604;2023-12-14T05:18:00;37.97;;;24.15;;
43990;SDS011;29654;50.784;20.604;2023-12-14T05:23:02;39.15;;;26.75;;
43990;SDS011;29654;50.784;20.604;2023-12-14T05:28:06;40.75;;;26.83;;
43990;SDS011;29654;50.784;20.604;2023-12-14T05:33:09;38.63;;;24.63;;
43990;SDS011;29654;50.784;20.604;2023-12-14T05:38:11;45.17;;;28.20;;
43990;SDS011;29654;50.784;20.604;2023-12-14T05:43:15;38.60;;;24.63;;
43990;SDS011;29654;50.784;20.604;2023-12-14T05:48:18;38.65;;;25.10;;
43990;SDS011;29654;50.784;20.604;2023-12-14T05:53:21;37.08;;;25.52;;
43990;SDS011;29654;50.784;20.604;2023-12-14T05:58:25;39.80;;;24.48;;
43990;SDS011;29654;50.784;20.604;2023-12-14T06:03:28;33.70;;;22.42;;
43990;SDS011;29654;50.784;20.604;2023-12-14T06:08:32;33.63;;;23.25;;
43990;SDS011;29654;50.784;20.604;2023-12-14T06:13:36;34.63;;;23.08;;
43990;SDS011;29654;50.784;20.604;2023-12-14T06:18:39;29.77;;;21.05;;
43990;SDS011;29654;50.784;20.604;2023-12-14T06:23:43;30.52;;;22.10;;
43990;SDS011;29654;50.784;20.604;2023-12-14T06:28:47;27.90;;;21.10;;
43990;SDS011;29654;50.784;20.604;2023-12-14T06:33:50;28.80;;;20.75;;
43990;SDS011;29654;50.784;20.604;2023-12-14T06:38:52;28.40;;;20.33;;
43990;SDS011;29654;50.784;20.604;2023-12-14T06:43:57;27.75;;;21.45;;
43990;SDS011;29654;50.784;20.604;2023-12-14T06:48:59;28.00;;;22.15;;
43990;SDS011;29654;50.784;20.604;2023-12-14T06:54:02;28.90;;;20.67;;
43990;SDS011;29654;50.784;20.604;2023-12-14T06:59:06;29.00;;;22.17;;
43990;SDS011;29654;50.784;20.604;2023-12-14T07:04:08;26.77;;;20.73;;
43990;SDS011;29654;50.784;20.604;2023-12-14T07:09:11;26.88;;;20.00;;
43990;SDS011;29654;50.784;20.604;2023-12-14T07:14:16;25.38;;;19.63;;
43990;SDS011;29654;50.784;20.604;2023-12-14T07:19:19;25.33;;;19.42;;
43990;SDS011;29654;50.784;20.604;2023-12-14T07:24:22;24.17;;;20.13;;
43990;SDS011;29654;50.784;20.604;2023-12-14T07:29:26;30.50;;;22.58;;
43990;SDS011;29654;50.784;20.604;2023-12-14T07:34:28;27.10;;;20.63;;
43990;SDS011;29654;50.784;20.604;2023-12-14T07:39:31;25.67;;;20.65;;
43990;SDS011;29654;50.784;20.604;2023-12-14T07:44:37;28.10;;;21.85;;
43990;SDS011;29654;50.784;20.604;2023-12-14T07:49:40;27.58;;;20.92;;
43990;SDS011;29654;50.784;20.604;2023-12-14T07:54:43;25.50;;;20.20;;
43990;SDS011;29654;50.784;20.604;2023-12-14T07:59:47;25.48;;;20.05;;
43990;SDS011;29654;50.784;20.604;2023-12-14T08:04:50;25.70;;;18.75;;
43990;SDS011;29654;50.784;20.604;2023-12-14T08:09:53;22.92;;;19.55;;
43990;SDS011;29654;50.784;20.604;2023-12-14T08:14:57;21.45;;;17.75;;
43990;SDS011;29654;50.784;20.604;2023-12-14T08:19:59;20.48;;;17.88;;
43990;SDS011;29654;50.784;20.604;2023-12-14T08:25:02;21.92;;;18.63;;
43990;SDS011;29654;50.784;20.604;2023-12-14T08:30:07;22.05;;;18.65;;
43990;SDS011;29654;50.784;20.604;2023-12-14T08:35:12;23.33;;;17.55;;
43990;SDS011;29654;50.784;20.604;2023-12-14T08:40:14;21.73;;;18.98;;
43990;SDS011;29654;50.784;20.604;2023-12-14T08:45:18;21.38;;;18.20;;
43990;SDS011;29654;50.784;20.604;2023-12-14T08:50:21;22.33;;;18.52;;
43990;SDS011;29654;50.784;20.604;2023-12-14T08:55:26;24.25;;;18.88;;
43990;SDS011;29654;50.784;20.604;2023-12-14T09:00:30;24.98;;;19.27;;
43990;SDS011;29654;50.784;20.604;2023-12-14T09:05:33;23.60;;;18.70;;
43990;SDS011;29654;50.784;20.604;2023-12-14T09:10:37;22.92;;;19.40;;
43990;SDS011;29654;50.784;20.604;2023-12-14T09:15:41;22.83;;;18.00;;
43990;SDS011;29654;50.784;20.604;2023-12-14T09:20:44;24.02;;;18.60;;
43990;SDS011;29654;50.784;20.604;2023-12-14T09:25:46;23.00;;;17.70;;
43990;SDS011;29654;50.784;20.604;2023-12-14T09:30:51;22.48;;;18.52;;
43990;SDS011;29654;50.784;20.604;2023-12-14T09:35:55;25.30;;;19.92;;
43990;SDS011;29654;50.784;20.604;2023-12-14T09:40:58;22.95;;;18.15;;
43990;SDS011;29654;50.784;20.604;2023-12-14T09:46:02;22.17;;;16.83;;
43990;SDS011;29654;50.784;20.604;2023-12-14T09:51:06;18.25;;;15.18;;
43990;SDS011;29654;50.784;20.604;2023-12-14T09:56:09;21.00;;;16.08;;
43990;SDS011;29654;50.784;20.604;2023-12-14T10:01:22;18.45;;;15.02;;
43990;SDS011;29654;50.784;20.604;2023-12-14T10:06:25;17.77;;;14.00;;
43990;SDS011;29654;50.784;20.604;2023-12-14T10:11:28;19.42;;;15.80;;
43990;SDS011;29654;50.784;20.604;2023-12-14T10:16:32;22.30;;;16.55;;
43990;SDS011;29654;50.784;20.604;2023-12-14T10:21:35;21.88;;;15.73;;
43990;SDS011;29654;50.784;20.604;2023-12-14T10:26:37;22.25;;;16.25;;
43990;SDS011;29654;50.784;20.604;2023-12-14T10:31:42;18.58;;;15.13;;
43990;SDS011;29654;50.784;20.604;2023-12-14T10:36:45;22.20;;;16.25;;
43990;SDS011;29654;50.784;20.604;2023-12-14T10:41:48;19.58;;;15.65;;
43990;SDS011;29654;50.784;20.604;2023-12-14T10:46:58;20.10;;;15.20;;
43990;SDS011;29654;50.784;20.604;2023-12-14T10:52:01;21.10;;;16.25;;
43990;SDS011;29654;50.784;20.604;2023-12-14T10:57:05;19.45;;;15.05;;
43990;SDS011;29654;50.784;20.604;2023-12-14T11:02:10;16.98;;;14.75;;
43990;SDS011;29654;50.784;20.604;2023-12-14T11:07:15;16.20;;;13.88;;
43990;SDS011;29654;50.784;20.604;2023-12-14T11:12:19;23.15;;;16.50;;
43990;SDS011;29654;50.784;20.604;2023-12-14T11:17:24;20.02;;;15.70;;
43990;SDS011;29654;50.784;20.604;2023-12-14T11:22:29;20.23;;;16.13;;
43990;SDS011;29654;50.784;20.604;2023-12-14T11:27:32;20.70;;;15.88;;
43990;SDS011;29654;50.784;20.604;2023-12-14T11:32:45;21.83;;;16.23;;
43990;SDS011;29654;50.784;20.604;2023-12-14T11:37:49;22.33;;;16.65;;
43990;SDS011;29654;50.784;20.604;2023-12-14T11:42:57;20.08;;;15.35;;
43990;SDS011;29654;50.784;20.604;2023-12-14T11:48:02;19.52;;;15.32;;
43990;SDS011;29654;50.784;20.604;2023-12-14T11:53:06;19.58;;;15.65;;
43990;SDS011;29654;50.784;20.604;2023-12-14T11:58:11;24.20;;;17.52;;
43990;SDS011;29654;50.784;20.604;2023-12-14T12:03:17;22.15;;;16.42;;
43990;SDS011;29654;50.784;20.604;2023-12-14T12:08:21;27.40;;;20.45;;
43990;SDS011;29654;50.784;20.604;2023-12-14T12:13:24;32.88;;;21.65;;
43990;SDS011;29654;50.784;20.604;2023-12-14T12:18:29;25.83;;;18.63;;
43990;SDS011;29654;50.784;20.604;2023-12-14T12:23:31;23.05;;;16.67;;
43990;SDS011;29654;50.784;20.604;2023-12-14T12:28:34;24.15;;;17.83;;
43990;SDS011;29654;50.784;20.604;2023-12-14T12:33:38;24.60;;;17.75;;
43990;SDS011;29654;50.784;20.604;2023-12-14T12:38:40;25.20;;;16.63;;
43990;SDS011;29654;50.784;20.604;2023-12-14T12:43:43;24.13;;;16.95;;
43990;SDS011;29654;50.784;20.604;2023-12-14T12:48:47;22.55;;;17.25;;
43990;SDS011;29654;50.784;20.604;2023-12-14T12:53:51;23.08;;;16.38;;
43990;SDS011;29654;50.784;20.604;2023-12-14T12:58:54;23.85;;;16.27;;
43990;SDS011;29654;50.784;20.604;2023-12-14T13:03:58;28.30;;;17.33;;
43990;SDS011;29654;50.784;20.604;2023-12-14T13:09:01;22.25;;;15.60;;
43990;SDS011;29654;50.784;20.604;2023-12-14T13:14:04;22.75;;;15.68;;
43990;SDS011;29654;50.784;20.604;2023-12-14T13:19:09;26.60;;;17.90;;
43990;SDS011;29654;50.784;20.604;2023-12-14T13:24:12;25.25;;;16.58;;
43990;SDS011;29654;50.784;20.604;2023-12-14T13:29:14;27.90;;;17.15;;
43990;SDS011;29654;50.784;20.604;2023-12-14T13:34:18;24.58;;;16.38;;
43990;SDS011;29654;50.784;20.604;2023-12-14T13:39:21;24.77;;;16.42;;
43990;SDS011;29654;50.784;20.604;2023-12-14T13:44:23;26.60;;;18.17;;
43990;SDS011;29654;50.784;20.604;2023-12-14T13:49:28;30.20;;;19.05;;
43990;SDS011;29654;50.784;20.604;2023-12-14T13:54:30;31.75;;;19.25;;
43990;SDS011;29654;50.784;20.604;2023-12-14T13:59:33;29.52;;;18.67;;
43990;SDS011;29654;50.784;20.604;2023-12-14T14:04:37;31.85;;;19.92;;
43990;SDS011;29654;50.784;20.604;2023-12-14T14:09:39;31.95;;;18.25;;
43990;SDS011;29654;50.784;20.604;2023-12-14T14:14:42;32.65;;;18.67;;
43990;SDS011;29654;50.784;20.604;2023-12-14T14:19:46;33.13;;;19.73;;
43990;SDS011;29654;50.784;20.604;2023-12-14T14:24:49;28.73;;;17.83;;
43990;SDS011;29654;50.784;20.604;2023-12-14T14:29:51;34.78;;;19.10;;
43990;SDS011;29654;50.784;20.604;2023-12-14T14:34:57;31.77;;;20.52;;
43990;SDS011;29654;50.784;20.604;2023-12-14T14:40:01;33.10;;;21.73;;
43990;SDS011;29654;50.784;20.604;2023-12-14T14:45:05;29.88;;;20.83;;
43990;SDS011;29654;50.784;20.604;2023-12-14T14:50:10;32.72;;;22.25;;
43990;SDS011;29654;50.784;20.604;2023-12-14T14:55:12;33.55;;;22.95;;
43990;SDS011;29654;50.784;20.604;2023-12-14T15:00:15;29.27;;;20.30;;
43990;SDS011;29654;50.784;20.604;2023-12-14T15:05:21;28.20;;;19.27;;
43990;SDS011;29654;50.784;20.604;2023-12-14T15:10:23;28.92;;;20.08;;
43990;SDS011;29654;50.784;20.604;2023-12-14T15:15:26;31.67;;;19.27;;
43990;SDS011;29654;50.784;20.604;2023-12-14T15:20:30;33.90;;;20.58;;
43990;SDS011;29654;50.784;20.604;2023-12-14T15:25:33;35.95;;;21.35;;
43990;SDS011;29654;50.784;20.604;2023-12-14T15:30:38;29.75;;;20.50;;
43990;SDS011;29654;50.784;20.604;2023-12-14T15:35:42;29.20;;;20.50;;
43990;SDS011;29654;50.784;20.604;2023-12-14T15:40:45;31.38;;;21.15;;
43990;SDS011;29654;50.784;20.604;2023-12-14T15:45:48;30.50;;;21.73;;
43990;SDS011;29654;50.784;20.604;2023-12-14T15:50:52;29.92;;;20.27;;
43990;SDS011;29654;50.784;20.604;2023-12-14T15:55:56;26.73;;;17.83;;
43990;SDS011;29654;50.784;20.604;2023-12-14T16:00:59;25.95;;;17.17;;
43990;SDS011;29654;50.784;20.604;2023-12-14T16:06:04;23.00;;;16.38;;
43990;SDS011;29654;50.784;20.604;2023-12-14T16:11:07;22.73;;;15.48;;
43990;SDS011;29654;50.784;20.604;2023-12-14T16:16:11;22.35;;;15.80;;
43990;SDS011;29654;50.784;20.604;2023-12-14T16:21:15;21.15;;;14.63;;
43990;SDS011;29654;50.784;20.604;2023-12-14T16:26:18;21.10;;;14.65;;
43990;SDS011;29654;50.784;20.604;2023-12-14T16:31:20;22.17;;;15.52;;
43990;SDS011;29654;50.784;20.604;2023-12-14T16:36:24;24.02;;;16.63;;
43990;SDS011;29654;50.784;20.604;2023-12-14T16:41:27;26.38;;;18.00;;
43990;SDS011;29654;50.784;20.604;2023-12-14T16:46:29;29.02;;;18.65;;
43990;SDS011;29654;50.784;20.604;2023-12-14T16:51:34;29.83;;;18.77;;
43990;SDS011;29654;50.784;20.604;2023-12-14T16:56:36;25.00;;;17.42;;
43990;SDS011;29654;50.784;20.604;2023-12-14T17:01:43;22.10;;;16.90;;
43990;SDS011;29654;50.784;20.604;2023-12-14T17:06:47;26.35;;;18.38;;
43990;SDS011;29654;50.784;20.604;2023-12-14T17:11:49;21.00;;;14.70;;
43990;SDS011;29654;50.784;20.604;2023-12-14T17:16:52;18.75;;;13.77;;
43990;SDS011;29654;50.784;20.604;2023-12-14T17:21:56;24.48;;;17.48;;
43990;SDS011;29654;50.784;20.604;2023-12-14T17:26:59;23.40;;;16.00;;
43990;SDS011;29654;50.784;20.604;2023-12-14T17:32:02;19.27;;;14.63;;
43990;SDS011;29654;50.784;20.604;2023-12-14T17:37:06;18.85;;;15.38;;
43990;SDS011;29654;50.784;20.604;2023-12-14T17:42:09;19.55;;;14.00;;
43990;SDS011;29654;50.784;20.604;2023-12-14T17:47:11;18.55;;;14.25;;
43990;SDS011;29654;50.784;20.604;2023-12-14T17:52:15;16.40;;;12.60;;
43990;SDS011;29654;50.784;20.604;2023-12-14T17:57:18;17.33;;;13.93;;
43990;SDS011;29654;50.784;20.604;2023-12-14T18:02:21;17.42;;;12.57;;
43990;SDS011;29654;50.784;20.604;2023-12-14T18:07:25;16.35;;;14.18;;
43990;SDS011;29654;50.784;20.604;2023-12-14T18:12:27;20.95;;;14.65;;
43990;SDS011;29654;50.784;20.604;2023-12-14T18:17:30;19.85;;;16.65;;
43990;SDS011;29654;50.784;20.604;2023-12-14T18:22:34;23.63;;;17.38;;
43990;SDS011;29654;50.784;20.604;2023-12-14T18:27:36;25.35;;;19.75;;
43990;SDS011;29654;50.784;20.604;2023-12-14T18:32:39;24.30;;;17.77;;
43990;SDS011;29654;50.784;20.604;2023-12-14T18:37:45;23.17;;;18.85;;
43990;SDS011;29654;50.784;20.604;2023-12-14T18:42:49;21.50;;;16.85;;
43990;SDS011;29654;50.784;20.604;2023-12-14T18:47:53;21.88;;;15.68;;
43990;SDS011;29654;50.784;20.604;2023-12-14T18:52:59;28.33;;;17.45;;
43990;SDS011;29654;50.784;20.604;2023-12-14T18:58:04;22.88;;;16.52;;
43990;SDS011;29654;50.784;20.604;2023-12-14T19:03:08;19.15;;;15.23;;
43990;SDS011;29654;50.784;20.604;2023-12-14T19:08:12;20.10;;;13.27;;
43990;SDS011;29654;50.784;20.604;2023-12-14T19:13:15;23.05;;;14.13;;
43990;SDS011;29654;50.784;20.604;2023-12-14T19:18:17;22.65;;;14.30;;
43990;SDS011;29654;50.784;20.604;2023-12-14T19:23:21;20.65;;;15.60;;
43990;SDS011;29654;50.784;20.604;2023-12-14T19:28:24;19.65;;;15.25;;
43990;SDS011;29654;50.784;20.604;2023-12-14T19:33:26;20.10;;;14.05;;
43990;SDS011;29654;50.784;20.604;2023-12-14T19:38:30;23.02;;;16.23;;
43990;SDS011;29654;50.784;20.604;2023-12-14T19:43:33;25.08;;;16.92;;
43990;SDS011;29654;50.784;20.604;2023-12-14T19:48:36;23.55;;;15.57;;
43990;SDS011;29654;50.784;20.604;2023-12-14T19:53:41;24.45;;;17.02;;
43990;SDS011;29654;50.784;20.604;2023-12-14T19:58:43;28.90;;;18.77;;
43990;SDS011;29654;50.784;20.604;2023-12-14T20:03:47;25.13;;;16.80;;
43990;SDS011;29654;50.784;20.604;2023-12-14T20:08:51;21.05;;;13.57;;
43990;SDS011;29654;50.784;20.604;2023-12-14T20:13:54;19.08;;;13.43;;
43990;SDS011;29654;50.784;20.604;2023-12-14T20:18:57;19.05;;;12.98;;
43990;SDS011;29654;50.784;20.604;2023-12-14T20:24:01;16.15;;;10.15;;
43990;SDS011;29654;50.784;20.604;2023-12-14T20:29:05;16.20;;;10.70;;
43990;SDS011;29654;50.784;20.604;2023-12-14T20:34:07;15.27;;;10.45;;
43990;SDS011;29654;50.784;20.604;2023-12-14T20:39:11;14.35;;;10.90;;
43990;SDS011;29654;50.784;20.604;2023-12-14T20:44:14;14.95;;;11.60;;
43990;SDS011;29654;50.784;20.604;2023-12-14T20:49:17;16.77;;;12.63;;
43990;SDS011;29654;50.784;20.604;2023-12-14T20:54:23;17.90;;;12.73;;
43990;SDS011;29654;50.784;20.604;2023-12-14T20:59:26;15.55;;;11.95;;
43990;SDS011;29654;50.784;20.604;2023-12-14T21:04:29;19.45;;;13.88;;
43990;SDS011;29654;50.784;20.604;2023-12-14T21:09:33;14.93;;;11.43;;
43990;SDS011;29654;50.784;20.604;2023-12-14T21:14:37;14.95;;;10.23;;
43990;SDS011;29654;50.784;20.604;2023-12-14T21:19:45;16.27;;;11.65;;
43990;SDS011;29654;50.784;20.604;2023-12-14T21:24:49;20.42;;;12.45;;
43990;SDS011;29654;50.784;20.604;2023-12-14T21:29:59;15.52;;;10.98;;
43990;SDS011;29654;50.784;20.604;2023-12-14T21:35:02;19.38;;;12.23;;
43990;SDS011;29654;50.784;20.604;2023-12-14T21:40:08;20.98;;;13.55;;
43990;SDS011;29654;50.784;20.604;2023-12-14T21:45:12;17.85;;;12.55;;
43990;SDS011;29654;50.784;20.604;2023-12-14T21:50:15;18.33;;;12.27;;
43990;SDS011;29654;50.784;20.604;2023-12-14T21:55:19;19.98;;;12.55;;
43990;SDS011;29654;50.784;20.604;2023-12-14T22:00:21;21.02;;;12.45;;
43990;SDS011;29654;50.784;20.604;2023-12-14T22:05:24;19.20;;;12.93;;
43990;SDS011;29654;50.784;20.604;2023-12-14T22:10:29;18.45;;;12.30;;
43990;SDS011;29654;50.784;20.604;2023-12-14T22:15:32;22.20;;;13.65;;
43990;SDS011;29654;50.784;20.604;2023-12-14T22:20:34;23.80;;;13.73;;
43990;SDS011;29654;50.784;20.604;2023-12-14T22:25:38;19.42;;;13.38;;
43990;SDS011;29654;50.784;20.604;2023-12-14T22:30:41;18.38;;;13.43;;
43990;SDS011;29654;50.784;20.604;2023-12-14T22:35:43;24.17;;;17.02;;
43990;SDS011;29654;50.784;20.604;2023-12-14T22:40:47;29.60;;;18.90;;
43990;SDS011;29654;50.784;20.604;2023-12-14T22:45:50;22.38;;;15.07;;
43990;SDS011;29654;50.784;20.604;2023-12-14T22:50:53;22.25;;;13.75;;
43990;SDS011;29654;50.784;20.604;2023-12-14T22:55:56;21.48;;;13.23;;
43990;SDS011;29654;50.784;20.604;2023-12-14T23:00:59;18.45;;;12.60;;
43990;SDS011;29654;50.784;20.604;2023-12-14T23:06:02;17.80;;;12.43;;
43990;SDS011;29654;50.784;20.604;2023-12-14T23:11:07;18.75;;;11.00;;
43990;SDS011;29654;50.784;20.604;2023-12-14T23:16:10;18.08;;;11.27;;
43990;SDS011;29654;50.784;20.604;2023-12-14T23:21:13;15.95;;;10.95;;
43990;SDS011;29654;50.784;20.604;2023-12-14T23:26:18;14.55;;;10.25;;
43990;SDS011;29654;50.784;20.604;2023-12-14T23:31:20;16.15;;;11.02;;
43990;SDS011;29654;50.784;20.604;2023-12-14T23:36:23;16.05;;;11.60;;
43990;SDS011;29654;50.784;20.604;2023-12-14T23:41:27;17.05;;;11.40;;
43990;SDS011;29654;50.784;20.604;2023-12-14T23:46:30;17.65;;;12.63;;
43990;SDS011;29654;50.784;20.604;2023-12-14T23:51:33;15.60;;;11.05;;
43990;SDS011;29654;50.784;20.604;2023-12-14T23:56:37;15.32;;;10.60;;
